sensor_id;sensor_type;location;lat;lon;timestamp;pressure;altitude;pressure_sealevel;temperature;humidity
78843;BME280;70542;53.774;-0.352;2023-06-19T00:02:56;100620;;;21;46
78843;BME280;70542;53.774;-0.352;2023-06-19T00:08:46;100620;;;23;43
78843;BME280;70542;53.774;-0.352;2023-06-19T00:14:25;100630;;;23;44
78843;BME280;70542;53.774;-0.352;2023-06-19T00:20:05;100630;;;22;46
78843;BME280;70542;53.774;-0.352;2023-06-19T00:25:44;100620;;;23;44
78843;BME280;70542;53.774;-0.352;2023-06-19T00:31:23;100620;;;23;43
78843;BME280;70542;53.774;-0.352;2023-06-19T00:37:01;100620;;;23;43
78843;BME280;70542;53.774;-0.352;2023-06-19T00:42:40;100620;;;21;49
78843;BME280;70542;53.774;-0.352;2023-06-19T00:48:19;100620;;;20;50
78843;BME280;70542;53.774;-0.352;2023-06-19T00:53:57;100610;;;17;56
78843;BME280;70542;53.774;-0.352;2023-06-19T00:59:41;100620;;;21;48
78843;BME280;70542;53.774;-0.352;2023-06-19T01:05:20;100620;;;21;48
78843;BME280;70542;53.774;-0.352;2023-06-19T01:11:01;100620;;;20;50
78843;BME280;70542;53.774;-0.352;2023-06-19T01:16:41;100620;;;20;51
78843;BME280;70542;53.774;-0.352;2023-06-19T01:22:25;100620;;;20;49
78843;BME280;70542;53.774;-0.352;2023-06-19T01:28:05;100600;;;18;54
78843;BME280;70542;53.774;-0.352;2023-06-19T01:33:45;100590;;;18;55
78843;BME280;70542;53.774;-0.352;2023-06-19T01:39:26;100590;;;19;51
78843;BME280;70542;53.774;-0.352;2023-06-19T01:45:06;100590;;;22;45
78843;BME280;70542;53.774;-0.352;2023-06-19T01:50:45;100600;;;21;46
78843;BME280;70542;53.774;-0.352;2023-06-19T01:56:24;100600;;;21;47
78843;BME280;70542;53.774;-0.352;2023-06-19T02:05:06;100590;;;20;47
78843;BME280;70542;53.774;-0.352;2023-06-19T02:10:45;100580;;;20;47
78843;BME280;70542;53.774;-0.352;2023-06-19T02:16:23;100580;;;21;46
78843;BME280;70542;53.774;-0.352;2023-06-19T02:22:02;100590;;;24;40
78843;BME280;70542;53.774;-0.352;2023-06-19T02:27:41;100590;;;21;44
78843;BME280;70542;53.774;-0.352;2023-06-19T02:33:20;100600;;;23;41
78843;BME280;70542;53.774;-0.352;2023-06-19T02:38:58;100600;;;22;43
78843;BME280;70542;53.774;-0.352;2023-06-19T02:44:37;100620;;;23;42
78843;BME280;70542;53.774;-0.352;2023-06-19T02:50:16;100620;;;20;47
78843;BME280;70542;53.774;-0.352;2023-06-19T02:55:54;100630;;;20;47
78843;BME280;70542;53.774;-0.352;2023-06-19T03:01:33;100620;;;22;44
78843;BME280;70542;53.774;-0.352;2023-06-19T03:07:12;100630;;;20;47
78843;BME280;70542;53.774;-0.352;2023-06-19T03:12:50;100640;;;20;46
78843;BME280;70542;53.774;-0.352;2023-06-19T03:18:30;100640;;;23;41
78843;BME280;70542;53.774;-0.352;2023-06-19T03:24:09;100640;;;22;43
78843;BME280;70542;53.774;-0.352;2023-06-19T03:29:47;100650;;;20;46
78843;BME280;70542;53.774;-0.352;2023-06-19T03:35:26;100660;;;22;43
78843;BME280;70542;53.774;-0.352;2023-06-19T03:41:05;100670;;;20;49
78843;BME280;70542;53.774;-0.352;2023-06-19T03:46:44;100670;;;20;48
78843;BME280;70542;53.774;-0.352;2023-06-19T03:52:22;100670;;;20;48
78843;BME280;70542;53.774;-0.352;2023-06-19T03:58:01;100670;;;20;48
78843;BME280;70542;53.774;-0.352;2023-06-19T04:03:40;100680;;;21;45
78843;BME280;70542;53.774;-0.352;2023-06-19T04:09:26;100680;;;21;45
78843;BME280;70542;53.774;-0.352;2023-06-19T04:15:06;100700;;;21;45
78843;BME280;70542;53.774;-0.352;2023-06-19T04:20:44;100700;;;21;45
78843;BME280;70542;53.774;-0.352;2023-06-19T04:26:23;100700;;;21;45
78843;BME280;70542;53.774;-0.352;2023-06-19T04:32:02;100700;;;21;45
78843;BME280;70542;53.774;-0.352;2023-06-19T04:37:41;100700;;;20;48
78843;BME280;70542;53.774;-0.352;2023-06-19T04:43:20;100700;;;22;44
78843;BME280;70542;53.774;-0.352;2023-06-19T04:49:06;100710;;;21;44
78843;BME280;70542;53.774;-0.352;2023-06-19T04:54:45;100720;;;21;45
78843;BME280;70542;53.774;-0.352;2023-06-19T05:00:24;100720;;;21;45
78843;BME280;70542;53.774;-0.352;2023-06-19T05:06:04;100730;;;20;48
78843;BME280;70542;53.774;-0.352;2023-06-19T05:11:44;100730;;;20;48
78843;BME280;70542;53.774;-0.352;2023-06-19T05:17:23;100740;;;21;46
78843;BME280;70542;53.774;-0.352;2023-06-19T05:23:02;100730;;;21;46
78843;BME280;70542;53.774;-0.352;2023-06-19T05:28:40;100740;;;22;45
78843;BME280;70542;53.774;-0.352;2023-06-19T05:34:29;100740;;;21;46
78843;BME280;70542;53.774;-0.352;2023-06-19T05:40:09;100740;;;20;47
78843;BME280;70542;53.774;-0.352;2023-06-19T05:45:48;100740;;;19;50
78843;BME280;70542;53.774;-0.352;2023-06-19T05:51:27;100750;;;21;46
78843;BME280;70542;53.774;-0.352;2023-06-19T05:57:06;100760;;;21;47
78843;BME280;70542;53.774;-0.352;2023-06-19T06:02:45;100760;;;20;47
78843;BME280;70542;53.774;-0.352;2023-06-19T06:08:35;100770;;;19;51
78843;BME280;70542;53.774;-0.352;2023-06-19T06:14:14;100780;;;20;48
78843;BME280;70542;53.774;-0.352;2023-06-19T06:19:53;100780;;;20;47
78843;BME280;70542;53.774;-0.352;2023-06-19T06:25:31;100790;;;20;49
78843;BME280;70542;53.774;-0.352;2023-06-19T06:31:11;100790;;;20;49
78843;BME280;70542;53.774;-0.352;2023-06-19T06:37:01;100800;;;20;48
78843;BME280;70542;53.774;-0.352;2023-06-19T06:42:40;100810;;;22;46
78843;BME280;70542;53.774;-0.352;2023-06-19T06:48:19;100810;;;21;48
78843;BME280;70542;53.774;-0.352;2023-06-19T06:54:01;100820;;;19;51
78843;BME280;70542;53.774;-0.352;2023-06-19T06:59:50;100820;;;21;46
78843;BME280;70542;53.774;-0.352;2023-06-19T07:05:33;100820;;;21;45
78843;BME280;70542;53.774;-0.352;2023-06-19T07:11:12;100830;;;21;46
78843;BME280;70542;53.774;-0.352;2023-06-19T07:16:50;100830;;;20;46
78843;BME280;70542;53.774;-0.352;2023-06-19T07:22:29;100830;;;20;47
78843;BME280;70542;53.774;-0.352;2023-06-19T07:28:13;100840;;;20;46
78843;BME280;70542;53.774;-0.352;2023-06-19T07:33:56;100830;;;20;47
78843;BME280;70542;53.774;-0.352;2023-06-19T07:39:35;100840;;;21;45
78843;BME280;70542;53.774;-0.352;2023-06-19T07:45:28;100850;;;21;44
78843;BME280;70542;53.774;-0.352;2023-06-19T07:51:12;100840;;;19;49
78843;BME280;70542;53.774;-0.352;2023-06-19T07:56:56;100840;;;20;47
78843;BME280;70542;53.774;-0.352;2023-06-19T08:02:43;100850;;;20;47
78843;BME280;70542;53.774;-0.352;2023-06-19T08:08:27;100860;;;22;43
78843;BME280;70542;53.774;-0.352;2023-06-19T08:14:06;100860;;;20;45
78843;BME280;70542;53.774;-0.352;2023-06-19T08:19:44;100860;;;21;43
78843;BME280;70542;53.774;-0.352;2023-06-19T08:25:23;100860;;;21;45
78843;BME280;70542;53.774;-0.352;2023-06-19T08:31:02;100870;;;22;43
78843;BME280;70542;53.774;-0.352;2023-06-19T08:36:42;100880;;;22;43
78843;BME280;70542;53.774;-0.352;2023-06-19T08:42:20;100880;;;22;42
78843;BME280;70542;53.774;-0.352;2023-06-19T08:47:59;100870;;;21;42
78843;BME280;70542;53.774;-0.352;2023-06-19T08:53:45;100870;;;23;40
78843;BME280;70542;53.774;-0.352;2023-06-19T08:59:26;100870;;;23;40
78843;BME280;70542;53.774;-0.352;2023-06-19T09:05:12;100870;;;24;37
78843;BME280;70542;53.774;-0.352;2023-06-19T09:10:56;100870;;;24;36
78843;BME280;70542;53.774;-0.352;2023-06-19T09:16:38;100880;;;22;40
78843;BME280;70542;53.774;-0.352;2023-06-19T09:22:18;100880;;;22;39
78843;BME280;70542;53.774;-0.352;2023-06-19T09:27:57;100890;;;22;40
78843;BME280;70542;53.774;-0.352;2023-06-19T09:33:37;100880;;;23;39
78843;BME280;70542;53.774;-0.352;2023-06-19T09:39:16;100880;;;21;40
78843;BME280;70542;53.774;-0.352;2023-06-19T09:44:59;100890;;;22;41
78843;BME280;70542;53.774;-0.352;2023-06-19T09:50:43;100890;;;22;40
78843;BME280;70542;53.774;-0.352;2023-06-19T09:56:23;100890;;;22;41
78843;BME280;70542;53.774;-0.352;2023-06-19T10:02:03;100890;;;24;38
78843;BME280;70542;53.774;-0.352;2023-06-19T10:07:43;100900;;;22;40
78843;BME280;70542;53.774;-0.352;2023-06-19T10:13:32;100900;;;23;38
78843;BME280;70542;53.774;-0.352;2023-06-19T10:19:14;100900;;;22;41
78843;BME280;70542;53.774;-0.352;2023-06-19T10:24:53;100900;;;23;37
78843;BME280;70542;53.774;-0.352;2023-06-19T10:30:32;100900;;;23;38
78843;BME280;70542;53.774;-0.352;2023-06-19T10:36:15;100900;;;24;37
78843;BME280;70542;53.774;-0.352;2023-06-19T10:41:54;100900;;;24;35
78843;BME280;70542;53.774;-0.352;2023-06-19T10:47:38;100900;;;25;35
78843;BME280;70542;53.774;-0.352;2023-06-19T10:53:24;100900;;;24;35
78843;BME280;70542;53.774;-0.352;2023-06-19T10:59:04;100910;;;25;34
78843;BME280;70542;53.774;-0.352;2023-06-19T11:04:43;100920;;;25;34
78843;BME280;70542;53.774;-0.352;2023-06-19T11:10:22;100920;;;24;35
78843;BME280;70542;53.774;-0.352;2023-06-19T11:16:01;100910;;;24;34
78843;BME280;70542;53.774;-0.352;2023-06-19T11:21:44;100920;;;24;34
78843;BME280;70542;53.774;-0.352;2023-06-19T11:27:23;100910;;;23;35
78843;BME280;70542;53.774;-0.352;2023-06-19T11:33:16;100910;;;25;33
78843;BME280;70542;53.774;-0.352;2023-06-19T11:38:55;100910;;;25;32
78843;BME280;70542;53.774;-0.352;2023-06-19T11:44:33;100900;;;24;33
78843;BME280;70542;53.774;-0.352;2023-06-19T11:50:13;100900;;;25;33
78843;BME280;70542;53.774;-0.352;2023-06-19T11:56:00;100900;;;25;33
78843;BME280;70542;53.774;-0.352;2023-06-19T12:01:38;100900;;;26;31
78843;BME280;70542;53.774;-0.352;2023-06-19T12:07:17;100900;;;25;32
78843;BME280;70542;53.774;-0.352;2023-06-19T12:12:56;100920;;;26;31
78843;BME280;70542;53.774;-0.352;2023-06-19T12:18:35;100910;;;26;30
78843;BME280;70542;53.774;-0.352;2023-06-19T12:24:14;100930;;;24;33
78843;BME280;70542;53.774;-0.352;2023-06-19T12:29:52;100920;;;26;31
78843;BME280;70542;53.774;-0.352;2023-06-19T12:35:31;100930;;;25;33
78843;BME280;70542;53.774;-0.352;2023-06-19T12:41:13;100930;;;26;31
78843;BME280;70542;53.774;-0.352;2023-06-19T12:46:52;100930;;;27;31
78843;BME280;70542;53.774;-0.352;2023-06-19T12:52:31;100930;;;25;33
78843;BME280;70542;53.774;-0.352;2023-06-19T12:58:10;100920;;;26;31
78843;BME280;70542;53.774;-0.352;2023-06-19T13:03:49;100930;;;25;32
78843;BME280;70542;53.774;-0.352;2023-06-19T13:09:32;100920;;;25;31
78843;BME280;70542;53.774;-0.352;2023-06-19T13:15:16;100920;;;26;30
78843;BME280;70542;53.774;-0.352;2023-06-19T13:21:00;100910;;;26;30
78843;BME280;70542;53.774;-0.352;2023-06-19T13:26:39;100910;;;26;30
78843;BME280;70542;53.774;-0.352;2023-06-19T13:32:17;100910;;;25;32
78843;BME280;70542;53.774;-0.352;2023-06-19T13:38:01;100900;;;26;30
78843;BME280;70542;53.774;-0.352;2023-06-19T13:43:41;100900;;;26;30
78843;BME280;70542;53.774;-0.352;2023-06-19T13:49:19;100880;;;26;29
78843;BME280;70542;53.774;-0.352;2023-06-19T13:55:18;100880;;;28;27
78843;BME280;70542;53.774;-0.352;2023-06-19T14:00:57;100880;;;26;29
78843;BME280;70542;53.774;-0.352;2023-06-19T14:06:36;100890;;;27;28
78843;BME280;70542;53.774;-0.352;2023-06-19T14:12:14;100880;;;28;28
78843;BME280;70542;53.774;-0.352;2023-06-19T14:17:53;100880;;;27;27
78843;BME280;70542;53.774;-0.352;2023-06-19T14:23:32;100880;;;26;28
78843;BME280;70542;53.774;-0.352;2023-06-19T14:29:16;100880;;;27;28
78843;BME280;70542;53.774;-0.352;2023-06-19T14:34:54;100880;;;27;27
78843;BME280;70542;53.774;-0.352;2023-06-19T14:40:38;100880;;;27;28
78843;BME280;70542;53.774;-0.352;2023-06-19T14:46:17;100880;;;28;27
78843;BME280;70542;53.774;-0.352;2023-06-19T14:51:55;100880;;;28;26
78843;BME280;70542;53.774;-0.352;2023-06-19T14:57:36;100880;;;28;25
78843;BME280;70542;53.774;-0.352;2023-06-19T15:03:27;100880;;;28;26
78843;BME280;70542;53.774;-0.352;2023-06-19T15:09:06;100870;;;28;26
78843;BME280;70542;53.774;-0.352;2023-06-19T15:14:55;100870;;;28;25
78843;BME280;70542;53.774;-0.352;2023-06-19T15:20:34;100870;;;28;25
78843;BME280;70542;53.774;-0.352;2023-06-19T15:26:13;100860;;;27;26
78843;BME280;70542;53.774;-0.352;2023-06-19T15:32:07;100860;;;27;26
78843;BME280;70542;53.774;-0.352;2023-06-19T15:37:46;100850;;;27;26
78843;BME280;70542;53.774;-0.352;2023-06-19T15:43:30;100850;;;28;25
78843;BME280;70542;53.774;-0.352;2023-06-19T15:49:11;100850;;;27;26
78843;BME280;70542;53.774;-0.352;2023-06-19T15:54:51;100850;;;26;26
78843;BME280;70542;53.774;-0.352;2023-06-19T16:00:30;100860;;;26;26
78843;BME280;70542;53.774;-0.352;2023-06-19T16:06:10;100850;;;25;29
78843;BME280;70542;53.774;-0.352;2023-06-19T16:11:49;100850;;;26;27
78843;BME280;70542;53.774;-0.352;2023-06-19T16:17:27;100850;;;26;28
78843;BME280;70542;53.774;-0.352;2023-06-19T16:23:11;100840;;;27;27
78843;BME280;70542;53.774;-0.352;2023-06-19T16:28:50;100840;;;28;25
78843;BME280;70542;53.774;-0.352;2023-06-19T16:34:28;100850;;;28;25
78843;BME280;70542;53.774;-0.352;2023-06-19T16:40:09;100850;;;28;25
78843;BME280;70542;53.774;-0.352;2023-06-19T16:45:48;100860;;;30;22
78843;BME280;70542;53.774;-0.352;2023-06-19T16:51:34;100850;;;29;23
78843;BME280;70542;53.774;-0.352;2023-06-19T16:57:13;100850;;;30;22
78843;BME280;70542;53.774;-0.352;2023-06-19T17:02:52;100850;;;32;21
78843;BME280;70542;53.774;-0.352;2023-06-19T17:08:35;100850;;;30;22
78843;BME280;70542;53.774;-0.352;2023-06-19T17:14:14;100850;;;31;20
78843;BME280;70542;53.774;-0.352;2023-06-19T17:19:53;100840;;;30;22
78843;BME280;70542;53.774;-0.352;2023-06-19T17:25:37;100840;;;30;23
78843;BME280;70542;53.774;-0.352;2023-06-19T17:31:16;100850;;;30;22
78843;BME280;70542;53.774;-0.352;2023-06-19T17:36:55;100850;;;30;22
78843;BME280;70542;53.774;-0.352;2023-06-19T17:42:33;100850;;;30;22
78843;BME280;70542;53.774;-0.352;2023-06-19T17:48:12;100860;;;30;22
78843;BME280;70542;53.774;-0.352;2023-06-19T17:53:51;100860;;;30;22
78843;BME280;70542;53.774;-0.352;2023-06-19T17:59:29;100860;;;32;21
78843;BME280;70542;53.774;-0.352;2023-06-19T18:05:08;100870;;;30;22
78843;BME280;70542;53.774;-0.352;2023-06-19T18:10:47;100880;;;32;20
78843;BME280;70542;53.774;-0.352;2023-06-19T18:16:26;100880;;;31;21
78843;BME280;70542;53.774;-0.352;2023-06-19T18:22:06;100880;;;31;21
78843;BME280;70542;53.774;-0.352;2023-06-19T18:27:51;100880;;;30;22
78843;BME280;70542;53.774;-0.352;2023-06-19T18:33:50;100890;;;29;23
78843;BME280;70542;53.774;-0.352;2023-06-19T18:39:31;100890;;;30;22
78843;BME280;70542;53.774;-0.352;2023-06-19T18:45:26;100890;;;30;21
78843;BME280;70542;53.774;-0.352;2023-06-19T18:51:06;100900;;;31;21
78843;BME280;70542;53.774;-0.352;2023-06-19T18:59:02;100900;;;29;23
78843;BME280;70542;53.774;-0.352;2023-06-19T19:04:52;100900;;;30;21
78843;BME280;70542;53.774;-0.352;2023-06-19T19:10:34;100900;;;28;23
78843;BME280;70542;53.774;-0.352;2023-06-19T19:16:13;100900;;;29;23
78843;BME280;70542;53.774;-0.352;2023-06-19T19:21:51;100910;;;29;22
78843;BME280;70542;53.774;-0.352;2023-06-19T19:27:30;100910;;;27;25
78843;BME280;70542;53.774;-0.352;2023-06-19T19:33:09;100910;;;28;24
78843;BME280;70542;53.774;-0.352;2023-06-19T19:38:48;100910;;;28;24
78843;BME280;70542;53.774;-0.352;2023-06-19T19:44:29;100920;;;27;26
78843;BME280;70542;53.774;-0.352;2023-06-19T19:50:10;100920;;;27;26
78843;BME280;70542;53.774;-0.352;2023-06-19T19:55:49;100930;;;28;25
78843;BME280;70542;53.774;-0.352;2023-06-19T20:01:30;100930;;;27;26
78843;BME280;70542;53.774;-0.352;2023-06-19T20:07:09;100940;;;26;27
78843;BME280;70542;53.774;-0.352;2023-06-19T20:12:49;100950;;;25;30
78843;BME280;70542;53.774;-0.352;2023-06-19T20:18:28;100950;;;25;31
78843;BME280;70542;53.774;-0.352;2023-06-19T20:24:13;100960;;;25;32
78843;BME280;70542;53.774;-0.352;2023-06-19T20:29:57;100960;;;26;33
78843;BME280;70542;53.774;-0.352;2023-06-19T20:35:36;100970;;;24;35
78843;BME280;70542;53.774;-0.352;2023-06-19T20:41:15;100980;;;24;36
78843;BME280;70542;53.774;-0.352;2023-06-19T20:46:54;100990;;;24;36
78843;BME280;70542;53.774;-0.352;2023-06-19T20:52:33;101000;;;23;36
78843;BME280;70542;53.774;-0.352;2023-06-19T20:58:12;101000;;;23;37
78843;BME280;70542;53.774;-0.352;2023-06-19T21:03:51;101000;;;23;38
78843;BME280;70542;53.774;-0.352;2023-06-19T21:09:31;101030;;;25;35
78843;BME280;70542;53.774;-0.352;2023-06-19T21:15:15;101020;;;24;36
78843;BME280;70542;53.774;-0.352;2023-06-19T21:20:58;101020;;;23;39
78843;BME280;70542;53.774;-0.352;2023-06-19T21:26:37;101040;;;22;39
78843;BME280;70542;53.774;-0.352;2023-06-19T21:32:16;101030;;;22;40
78843;BME280;70542;53.774;-0.352;2023-06-19T21:37:55;101030;;;21;42
78843;BME280;70542;53.774;-0.352;2023-06-19T21:43:33;101040;;;22;41
78843;BME280;70542;53.774;-0.352;2023-06-19T21:49:18;101030;;;24;38
78843;BME280;70542;53.774;-0.352;2023-06-19T21:54:56;101030;;;23;38
78843;BME280;70542;53.774;-0.352;2023-06-19T22:00:35;101030;;;24;38
78843;BME280;70542;53.774;-0.352;2023-06-19T22:06:14;101020;;;22;40
78843;BME280;70542;53.774;-0.352;2023-06-19T22:11:53;101020;;;23;38
78843;BME280;70542;53.774;-0.352;2023-06-19T22:17:38;101010;;;23;39
78843;BME280;70542;53.774;-0.352;2023-06-19T22:23:17;101010;;;23;39
78843;BME280;70542;53.774;-0.352;2023-06-19T22:28:57;101010;;;23;39
78843;BME280;70542;53.774;-0.352;2023-06-19T22:34:35;101000;;;23;38
78843;BME280;70542;53.774;-0.352;2023-06-19T22:40:14;101010;;;23;39
78843;BME280;70542;53.774;-0.352;2023-06-19T22:45:53;101010;;;24;37
78843;BME280;70542;53.774;-0.352;2023-06-19T22:51:31;101010;;;24;37
78843;BME280;70542;53.774;-0.352;2023-06-19T22:57:10;101010;;;22;39
78843;BME280;70542;53.774;-0.352;2023-06-19T23:02:54;101000;;;21;42
78843;BME280;70542;53.774;-0.352;2023-06-19T23:08:37;101000;;;20;43
78843;BME280;70542;53.774;-0.352;2023-06-19T23:14:16;101000;;;20;43
78843;BME280;70542;53.774;-0.352;2023-06-19T23:19:55;101000;;;21;43
78843;BME280;70542;53.774;-0.352;2023-06-19T23:25:33;100990;;;20;43
78843;BME280;70542;53.774;-0.352;2023-06-19T23:31:12;101000;;;20;43
78843;BME280;70542;53.774;-0.352;2023-06-19T23:36:50;101000;;;20;43
78843;BME280;70542;53.774;-0.352;2023-06-19T23:42:29;101000;;;21;43
78843;BME280;70542;53.774;-0.352;2023-06-19T23:48:08;101000;;;20;43
78843;BME280;70542;53.774;-0.352;2023-06-19T23:53:47;101000;;;21;43
78843;BME280;70542;53.774;-0.352;2023-06-19T23:59:26;101000;;;20;44
